Airfield :
LOGIN :

Register | Disclaimer

   EN    FR    IT 

 










Legend :    VFR   Marginal VFR   IFR   Intensive IFR   Very Intensive IFR
Visi :
Ceiling :
>= 8 km
>= 3000ft
5 to 8 km
1000 to 3000 ft
1500m to 5 km
500 to 1000 ft
800 to 1500m
200 to 500 ft
< 800m
< 200 ft
Symbols :   Thunderstorms  Fog  Heavy snow  Heavy precipitations  Wind > 20 kt
SIGMETs :     Misc.  Thunderstorms  Icing  Turbulence  Mountain Waves  Volcanic Ashes







- Airport Elevation : 129 ft
- IATA code : ZCN


ETHC - Celle

CURRENT METAR :
  • 181520Z 28021G40KT 9999 SCT012 BKN016 02/00 Q0990 RERA WHT BLU TEMPO GRN

EXPIRED METARs :
  • 181444Z 28023G44KT 8000 -RA SCT011 BKN016 02/01 Q0987 RERA WHT BLU TEMPO GRN
  • 181420Z 27025G44KT 6000 SHRA BKN009 BKN014 03/01 Q0984 GRN BLU TEMPO GRN
  • 181344Z 25019G41KT 8000 SHRA SCT007 BKN009 BKN014 05/03 Q0981 GRN BLU TEMPO GRN
  • 181320Z 25017G28KT 4000 SHRA BKN007 BKN014 04/03 Q0980 GRN BLU TEMPO GRN
  • 181311Z 24022KT 4000 SHRA BKN009 BKN014 05/03 Q0980 GRN BLU TEMPO GRN
  • 181246Z 24026KT 5000 -SHRA BKN012 BKN018 04/02 Q0979 GRN BLU TEMPO GRN

TAF TAF ETHC
Valid from the 18 at 15:00 until the 19 at 00:00 UTC


181430Z 1815/1824 27020G30KT 9999 NSW SCT010 BKN025
TEMPO 1815/1816 29025G45KT 4000 SHRA BKN007 BKN012
TEMPO 1816/1820 29015G25KT 3000 SHRASN BKN005 BKN010
BECMG 1820/1822 26012KT 9999 NSW SCT010 BKN030
No reported NOTAMs for that airfield.
1 SIGMET reported for the Bremen FIR (EDWW) :
 
Severe turbulence
EDWW SIGMET 8 VALID 181400/181700 EDZH
EDWW BREMEN FIR SEV TURB FCST WI N5320 E00858 - N5217 E01451 - N5127 E01459 - N5107 E01017 - N5121 E00842 - N5146 E00814 - N5217 E00739 - N5320 E00858 SFC/FL060 MOV E 30KT NC=



MET'MAP, your aeronautical weather chart ! - Copyright ORBIFLY December 2007 - Disclaimer

ORBIFLY MET'MAP TEAM :

Programming & Development : Alexandra Zaïnal
Concept & Development : Baudouin d'Aumeries
Co-Development & Prog : Marc-Olivier Méhu
Technical & hardware support : Manuel Goepfert

Contact : metmap@orbifly.com




SOURCES & CREDITS :

   NOAA